KFLG

Flagstaff Pulliam Airport

Flagstaff, Arizona, USA
KFLG 251722Z 2518/2618 08010KT P6SM SCT200 FM252100 22010G20KT P6SM SCT200 FM260200 VRB05KT P6SM FEW110 SCT200
Issued Valid From Valid To
Apr-25 @ 17:22 UTC
(28 minutes ago)
Apr-25 @ 18:00 UTC
(in 10 minutes)
Apr-26 @ 18:00 UTC
(in 24 hours)
Apr-25 @ 18:00 to Apr-25 @ 21:00
KFLG 251722Z 2518/2618 08010KT P6SM SCT200
Wind Visibility Clouds
80° at 10 knots Greater than 6 miles
  • Scattered at 20,000' AGL
From Apr-25 @ 21:00 to Apr-26 @ 02:00
FM252100 22010G20KT P6SM SCT200
Wind Visibility Clouds
220° at 10 knots
 Gusting to 20 knots
Greater than 6 miles
  • Scattered at 20,000' AGL
From Apr-26 @ 02:00 to Apr-26 @ 18:00
FM260200 VRB05KT P6SM FEW110 SCT200
Wind Visibility Clouds
Variable at 5 knots Greater than 6 miles
  • Few at 11,000' AGL
  • Scattered at 20,000' AGL
KFLG 251722Z 2518/2618 08010KT P6SM SCT200 FM252100 22010G20KT P6SM SCT200 FM260200 VRB05KT P6SM FEW110 SCT200
Issued Apr-25 @ 17:22 UTC
(28 minutes ago)
Valid From Apr-25 @ 18:00 UTC
(in 10 minutes)
Valid To Apr-26 @ 18:00 UTC
(in 24 hours)
Apr-25 @ 18:00 - Apr-25 @ 21:00
Wind Visibility
80° at 10 knots Greater than 6 miles
Clouds
  • Scattered at 20,000' AGL
From Apr-25 @ 21:00 - Apr-26 @ 02:00
Wind Visibility
220° at 10 knots
 Gusting to 20 knots
Greater than 6 miles
Clouds
  • Scattered at 20,000' AGL
From Apr-26 @ 02:00 - Apr-26 @ 18:00
Wind Visibility
Variable at 5 knots Greater than 6 miles
Clouds
  • Few at 11,000' AGL
  • Scattered at 20,000' AGL